Terminal Aerodrome Forecast
Issued by NWS

Home | Current Version | Previous Version | Text Only | Print | Product List | Glossary On
Versions: 1 2 3 4 5 6 7 8 9 10 11 12 13 14 15 16 17 18 19 20 21 22 23 24 25 26 27 28 29 30 31 32 33 34 35 36 37 38 39 40 41 42 43 44 45 46 47 48 49 50
000
FTUS43 KMKX 202330
TAFENW
TAF
KENW 202330Z 2100/2124 20004KT P6SM OVC040
     FM210200 19004KT P6SM OVC060
     FM210900 18006KT P6SM OVC025
     FM211200 18006KT 6SM -FZDZ BR OVC025
     FM211300 18007KT 3SM -FZDZ BR OVC020
     FM211700 18010KT 5SM -DZ BR OVC015
     FM211800 18011KT 5SM BR OVC025
     FM212000 18010G17KT P6SM OVC035=

USA.gov is the U.S. government's official web portal to all federal, state and local government web resources and services.